Time;durP1;ratioP1;P1;durP2;ratioP2;P2;SDS_P1;SDS_P2;PMS_P1;PMS_P2;Temp;Humidity;BMP_temperature;BMP_pressure;BME280_temperature;BME280_humidity;BME280_pressure;Samples;Min_cycle;Max_cycle;Signal;HPM_P1;HPM_P2
2024/01/27 00:00:26;;;;;;;1028.15;105.57;;;;;;;;;;4742014;29;20054;-75
2024/01/27 00:02:52;;;;;;;1041.22;106.00;;;;;;;;;;4741443;29;20064;-75
2024/01/27 00:05:20;;;;;;;1043.40;105.18;;;;;;;;;;4742571;29;20050;-75
2024/01/27 00:07:46;;;;;;;1004.25;100.70;;;;;;;;;;4743282;29;20291;-75
2024/01/27 00:10:13;;;;;;;1045.65;101.97;;;;;;;;;;4740840;29;20133;-75
2024/01/27 00:12:40;;;;;;;1031.28;100.47;;;;;;;;;;4743203;29;20041;-75
2024/01/27 00:15:07;;;;;;;1054.32;104.53;;;;;;;;;;4741612;29;20050;-75
2024/01/27 00:17:35;;;;;;;1050.15;103.78;;;;;;;;;;4740688;29;20154;-75
2024/01/27 00:20:02;;;;;;;1050.57;102.38;;;;;;;;;;4743180;29;20049;-76
2024/01/27 00:22:29;;;;;;;1020.67;97.70;;;;;;;;;;4742954;29;20037;-75
2024/01/27 00:24:56;;;;;;;1041.68;100.82;;;;;;;;;;4740132;29;21054;-76
2024/01/27 00:27:22;;;;;;;1037.10;97.90;;;;;;;;;;4742628;29;21006;-76
2024/01/27 00:29:49;;;;;;;1010.97;94.78;;;;;;;;;;4739790;29;20061;-76
2024/01/27 00:32:16;;;;;;;1010.58;94.55;;;;;;;;;;4740119;29;20037;-76
2024/01/27 00:34:42;;;;;;;1023.15;95.90;;;;;;;;;;4742760;29;20061;-76
2024/01/27 00:37:09;;;;;;;1033.78;96.90;;;;;;;;;;4739554;29;20157;-76
2024/01/27 00:39:35;;;;;;;1051.47;98.93;;;;;;;;;;4740150;29;20041;-76
2024/01/27 00:42:02;;;;;;;1013.75;94.28;;;;;;;;;;4740772;29;20045;-75
2024/01/27 00:44:28;;;;;;;1047.97;98.00;;;;;;;;;;4741004;29;20041;-75
2024/01/27 00:46:55;;;;;;;1036.18;96.63;;;;;;;;;;4741019;29;20545;-75
2024/01/27 00:49:22;;;;;;;1024.03;94.38;;;;;;;;;;4721892;29;20045;-75
2024/01/27 00:51:48;;;;;;;991.60;90.68;;;;;;;;;;4742041;29;20182;-75
2024/01/27 00:54:15;;;;;;;1029.65;94.68;;;;;;;;;;4741036;29;20041;-75
2024/01/27 00:56:42;;;;;;;1010.63;92.03;;;;;;;;;;4740355;29;20068;-75
2024/01/27 00:59:08;;;;;;;1031.65;94.72;;;;;;;;;;4739861;29;20137;-74
2024/01/27 01:01:35;;;;;;;1080.25;100.43;;;;;;;;;;4740971;29;21273;-74
2024/01/27 01:04:01;;;;;;;1003.17;92.78;;;;;;;;;;4739393;29;20148;-75
2024/01/27 01:06:28;;;;;;;1035.88;96.25;;;;;;;;;;4741243;29;20041;-74
2024/01/27 01:08:54;;;;;;;1034.07;95.60;;;;;;;;;;4738724;29;20034;-74
2024/01/27 01:11:21;;;;;;;1020.97;93.47;;;;;;;;;;4741641;29;21024;-74
2024/01/27 01:13:48;;;;;;;999.42;91.47;;;;;;;;;;4725388;29;20037;-74
2024/01/27 01:16:14;;;;;;;1033.40;94.82;;;;;;;;;;4739516;29;21035;-75
2024/01/27 01:18:41;;;;;;;1014.47;92.90;;;;;;;;;;4740874;29;20041;-75
2024/01/27 01:21:08;;;;;;;1007.78;93.30;;;;;;;;;;4740803;29;20185;-75
2024/01/27 01:23:34;;;;;;;1021.45;94.35;;;;;;;;;;4740199;29;20043;-75
2024/01/27 01:26:01;;;;;;;1010.55;93.18;;;;;;;;;;4739929;29;20071;-75
2024/01/27 01:28:28;;;;;;;998.97;92.13;;;;;;;;;;4738085;29;20249;-75
2024/01/27 01:30:55;;;;;;;1051.85;97.30;;;;;;;;;;4741710;29;20389;-76
2024/01/27 01:33:22;;;;;;;1019.47;93.68;;;;;;;;;;4740225;29;21166;-75
2024/01/27 01:35:49;;;;;;;1002.00;92.30;;;;;;;;;;4741511;29;20045;-75
2024/01/27 01:38:15;;;;;;;1018.35;93.22;;;;;;;;;;4738623;29;20063;-75
2024/01/27 01:40:42;;;;;;;1005.72;91.88;;;;;;;;;;4741700;29;20063;-75
2024/01/27 01:43:12;;;;;;;1030.93;95.00;;;;;;;;;;4740108;29;21193;-75
2024/01/27 01:45:38;;;;;;;1039.68;95.85;;;;;;;;;;4739187;29;20053;-75
2024/01/27 01:48:06;;;;;;;1024.00;94.43;;;;;;;;;;4740472;29;20045;-76
2024/01/27 01:50:33;;;;;;;1029.00;94.97;;;;;;;;;;4739921;29;20037;-76
2024/01/27 01:53:00;;;;;;;1047.38;97.40;;;;;;;;;;4736824;29;20164;-77
2024/01/27 01:55:27;;;;;;;1026.22;94.07;;;;;;;;;;4740635;29;20218;-77
2024/01/27 01:57:54;;;;;;;1028.43;94.88;;;;;;;;;;4737403;29;20048;-77
2024/01/27 02:03:26;;;;;;;1234.45;120.05;;;;;;;;;;797370;24;20438;-79
2024/01/27 02:05:54;;;;;;;1000.10;91.72;;;;;;;;;;4713556;29;20049;-79
2024/01/27 02:08:21;;;;;;;1058.65;98.30;;;;;;;;;;4715956;29;20041;-79
2024/01/27 02:10:48;;;;;;;1067.07;99.60;;;;;;;;;;4737981;29;20041;-82
2024/01/27 02:13:18;;;;;;;1014.95;93.43;;;;;;;;;;4734065;29;21000;-82
2024/01/27 02:15:46;;;;;;;1031.57;94.65;;;;;;;;;;4719185;29;20137;-81
2024/01/27 02:18:13;;;;;;;1186.65;113.68;;;;;;;;;;4716344;29;20171;-81
2024/01/27 02:20:41;;;;;;;1028.80;95.75;;;;;;;;;;4719911;29;20057;-80
2024/01/27 02:23:07;;;;;;;1051.70;98.47;;;;;;;;;;4720062;29;20919;-80
2024/01/27 02:25:34;;;;;;;1090.95;101.90;;;;;;;;;;4705042;29;20087;-80
2024/01/27 02:28:02;;;;;;;1134.20;108.18;;;;;;;;;;4718513;29;20109;-80
2024/01/27 02:30:29;;;;;;;1012.00;93.35;;;;;;;;;;4718735;29;20041;-80
2024/01/27 02:32:57;;;;;;;1088.10;101.35;;;;;;;;;;4733734;29;20159;-80
2024/01/27 02:35:24;;;;;;;1007.95;93.38;;;;;;;;;;4721166;29;21301;-80
2024/01/27 02:37:51;;;;;;;1031.13;94.63;;;;;;;;;;4720550;29;20578;-80
2024/01/27 02:40:17;;;;;;;1151.95;108.68;;;;;;;;;;4719314;29;20645;-80
2024/01/27 02:42:44;;;;;;;1035.53;96.22;;;;;;;;;;4736610;29;20509;-80
2024/01/27 02:45:13;;;;;;;1001.97;91.93;;;;;;;;;;4738363;29;21271;-81
2024/01/27 02:47:40;;;;;;;1177.55;112.05;;;;;;;;;;4719600;29;20409;-80
2024/01/27 02:50:07;;;;;;;1067.32;99.65;;;;;;;;;;4737793;29;20224;-80
2024/01/27 02:52:34;;;;;;;1024.78;94.65;;;;;;;;;;4717744;29;21209;-80
2024/01/27 02:55:01;;;;;;;1088.63;102.35;;;;;;;;;;4716274;29;20046;-81
2024/01/27 02:57:28;;;;;;;1047.93;96.72;;;;;;;;;;4733450;29;20156;-80
2024/01/27 02:59:55;;;;;;;992.25;91.10;;;;;;;;;;4735234;29;20056;-80
2024/01/27 03:02:21;;;;;;;1046.00;97.10;;;;;;;;;;4706242;29;20049;-81
2024/01/27 03:04:48;;;;;;;1038.90;96.22;;;;;;;;;;4739985;29;20053;-80
2024/01/27 03:07:15;;;;;;;1019.25;94.47;;;;;;;;;;4725453;29;20056;-81
2024/01/27 03:09:41;;;;;;;1220.95;119.93;;;;;;;;;;4749435;29;20048;-81
2024/01/27 03:12:08;;;;;;;1101.55;104.15;;;;;;;;;;4742196;29;20060;-80
2024/01/27 03:14:35;;;;;;;1069.10;101.03;;;;;;;;;;4746279;29;20091;-81
2024/01/27 03:17:02;;;;;;;1029.70;95.90;;;;;;;;;;4737109;29;20225;-81
2024/01/27 03:19:28;;;;;;;1075.00;101.25;;;;;;;;;;4738158;29;20174;-81
2024/01/27 03:21:55;;;;;;;1011.75;92.85;;;;;;;;;;4741370;29;20972;-80
2024/01/27 03:24:22;;;;;;;1143.60;109.75;;;;;;;;;;4732145;29;21244;-81
2024/01/27 03:26:49;;;;;;;1144.63;109.35;;;;;;;;;;4746415;29;21243;-81
2024/01/27 03:29:15;;;;;;;987.85;91.18;;;;;;;;;;4755870;29;20038;-80
2024/01/27 03:31:42;;;;;;;1168.88;113.57;;;;;;;;;;4744864;29;20056;-81
2024/01/27 03:34:08;;;;;;;1086.78;103.28;;;;;;;;;;4736934;29;21000;-80
2024/01/27 03:36:35;;;;;;;1021.65;95.30;;;;;;;;;;4730401;29;20156;-80
2024/01/27 03:39:03;;;;;;;1094.93;103.35;;;;;;;;;;4725796;29;20115;-80
2024/01/27 03:41:30;;;;;;;1041.63;98.00;;;;;;;;;;4752133;29;20045;-81
2024/01/27 03:43:57;;;;;;;1007.70;93.03;;;;;;;;;;4746867;29;20049;-81
2024/01/27 03:46:24;;;;;;;1015.45;93.45;;;;;;;;;;4752921;29;20041;-81
2024/01/27 03:48:50;;;;;;;1178.00;113.88;;;;;;;;;;4741667;29;20044;-80
2024/01/27 03:51:17;;;;;;;1012.60;93.68;;;;;;;;;;4747744;29;20065;-80
2024/01/27 03:53:45;;;;;;;1086.63;101.68;;;;;;;;;;4749317;29;20828;-81
2024/01/27 03:56:13;;;;;;;1061.70;99.68;;;;;;;;;;4725527;29;20132;-80
2024/01/27 03:58:40;;;;;;;1026.32;96.72;;;;;;;;;;4754069;29;20055;-80
2024/01/27 04:01:06;;;;;;;1012.15;93.40;;;;;;;;;;4745132;29;20153;-81
2024/01/27 04:03:36;;;;;;;1126.35;107.47;;;;;;;;;;4748641;29;20064;-81
2024/01/27 04:06:03;;;;;;;1020.40;94.20;;;;;;;;;;4754248;29;20277;-81
2024/01/27 04:08:30;;;;;;;1062.35;100.72;;;;;;;;;;4733453;29;20048;-80
2024/01/27 04:10:57;;;;;;;1131.30;106.90;;;;;;;;;;4739740;29;20053;-80
2024/01/27 04:13:24;;;;;;;1128.00;107.10;;;;;;;;;;4726261;29;20045;-81
2024/01/27 04:15:53;;;;;;;1089.28;102.72;;;;;;;;;;4734148;29;20058;-80
2024/01/27 04:18:20;;;;;;;1239.57;122.15;;;;;;;;;;4746291;29;20667;-81
2024/01/27 04:20:48;;;;;;;1023.78;94.72;;;;;;;;;;4755448;29;20399;-81
2024/01/27 04:23:15;;;;;;;1011.45;93.43;;;;;;;;;;4756946;29;20045;-81
2024/01/27 04:25:42;;;;;;;1249.75;122.32;;;;;;;;;;4753801;29;20048;-81
2024/01/27 04:28:11;;;;;;;1096.88;103.43;;;;;;;;;;4754735;29;20076;-81
2024/01/27 04:30:38;;;;;;;1042.63;97.60;;;;;;;;;;4740507;29;20077;-81
2024/01/27 04:33:07;;;;;;;1137.80;108.32;;;;;;;;;;4754281;29;20045;-81
2024/01/27 04:35:34;;;;;;;1080.78;101.75;;;;;;;;;;4732847;29;21303;-81
2024/01/27 04:38:01;;;;;;;1110.10;105.55;;;;;;;;;;4726809;29;20110;-81
2024/01/27 04:40:28;;;;;;;1040.43;96.97;;;;;;;;;;4753353;29;21173;-81
2024/01/27 04:42:54;;;;;;;1041.45;96.97;;;;;;;;;;4733198;29;20869;-81
2024/01/27 04:45:21;;;;;;;1025.40;95.00;;;;;;;;;;4738629;29;20136;-81
2024/01/27 04:47:48;;;;;;;1024.32;95.22;;;;;;;;;;4742916;29;21021;-81
2024/01/27 04:50:15;;;;;;;1085.07;101.70;;;;;;;;;;4757697;29;20867;-80
2024/01/27 04:52:42;;;;;;;1054.25;98.60;;;;;;;;;;4731389;29;21059;-81
2024/01/27 04:55:08;;;;;;;1033.13;96.00;;;;;;;;;;4757110;29;20138;-81
2024/01/27 04:57:35;;;;;;;1071.60;99.90;;;;;;;;;;4729566;29;20037;-81
2024/01/27 05:00:02;;;;;;;1013.65;93.88;;;;;;;;;;4755360;29;20033;-81
2024/01/27 05:02:29;;;;;;;1010.65;93.68;;;;;;;;;;4755932;29;20045;-81
2024/01/27 05:04:56;;;;;;;1052.57;98.88;;;;;;;;;;4732847;29;20558;-81
2024/01/27 05:07:23;;;;;;;1033.47;96.22;;;;;;;;;;4751943;29;20044;-81
2024/01/27 05:09:49;;;;;;;988.25;91.50;;;;;;;;;;4757091;29;20037;-81
2024/01/27 05:12:16;;;;;;;1083.15;102.70;;;;;;;;;;4722023;29;20902;-81
2024/01/27 05:14:43;;;;;;;1073.03;101.72;;;;;;;;;;4755869;29;20036;-82
2024/01/27 05:17:10;;;;;;;1031.53;97.68;;;;;;;;;;4756135;29;20998;-81
2024/01/27 05:19:37;;;;;;;1143.47;109.78;;;;;;;;;;4738314;29;20977;-81
2024/01/27 05:22:04;;;;;;;1038.60;97.70;;;;;;;;;;4756258;29;20052;-81
2024/01/27 05:24:30;;;;;;;1012.22;93.30;;;;;;;;;;4733551;29;20037;-80
2024/01/27 05:26:57;;;;;;;1098.10;104.25;;;;;;;;;;4751563;29;20053;-81
2024/01/27 05:29:24;;;;;;;1077.22;102.35;;;;;;;;;;4727889;29;20950;-81
2024/01/27 05:31:50;;;;;;;1017.42;94.55;;;;;;;;;;4759678;29;20224;-81
2024/01/27 05:34:17;;;;;;;1051.20;98.07;;;;;;;;;;4739548;29;20126;-81
2024/01/27 05:36:44;;;;;;;1064.22;99.78;;;;;;;;;;4754649;29;21028;-81
2024/01/27 05:39:11;;;;;;;1020.60;95.68;;;;;;;;;;4725481;29;20599;-81
2024/01/27 05:41:37;;;;;;;1109.75;107.10;;;;;;;;;;4721962;29;20115;-81
2024/01/27 05:44:04;;;;;;;1061.93;101.10;;;;;;;;;;4726698;29;20881;-80
2024/01/27 05:46:31;;;;;;;1017.40;94.85;;;;;;;;;;4737947;29;21029;-81
2024/01/27 05:49:02;;;;;;;1221.60;119.18;;;;;;;;;;4724935;29;21056;-80
2024/01/27 05:51:33;;;;;;;1033.53;96.22;;;;;;;;;;4756177;29;20033;-81
2024/01/27 05:54:00;;;;;;;1020.13;94.80;;;;;;;;;;4757036;29;20045;-81
2024/01/27 05:56:27;;;;;;;1004.30;93.35;;;;;;;;;;4734423;29;20076;-81
2024/01/27 05:58:53;;;;;;;1073.75;103.60;;;;;;;;;;4754206;29;20040;-80
2024/01/27 06:01:20;;;;;;;982.65;91.28;;;;;;;;;;4724159;29;20096;-80
2024/01/27 06:03:47;;;;;;;1018.97;95.30;;;;;;;;;;4735755;29;21013;-81
2024/01/27 06:06:14;;;;;;;1111.88;104.22;;;;;;;;;;4747780;29;20922;-82
2024/01/27 06:08:41;;;;;;;1019.83;95.28;;;;;;;;;;4754635;29;20041;-81
2024/01/27 06:11:07;;;;;;;1058.45;98.82;;;;;;;;;;4759695;29;20848;-82
2024/01/27 06:13:37;;;;;;;1047.57;98.40;;;;;;;;;;4754892;29;20037;-82
2024/01/27 06:16:10;;;;;;;1054.03;98.97;;;;;;;;;;4752705;29;20037;-81
2024/01/27 06:18:37;;;;;;;1078.67;102.87;;;;;;;;;;4753520;29;21208;-80
2024/01/27 06:21:05;;;;;;;1068.00;99.82;;;;;;;;;;4751179;29;20221;-81
2024/01/27 06:23:32;;;;;;;1159.90;112.75;;;;;;;;;;4755514;29;20996;-83
2024/01/27 06:25:59;;;;;;;989.35;92.13;;;;;;;;;;4757082;29;20053;-83
2024/01/27 06:28:26;;;;;;;1002.47;92.97;;;;;;;;;;4753815;29;20205;-83
2024/01/27 06:30:52;;;;;;;1048.72;98.20;;;;;;;;;;4752567;29;20587;-83
2024/01/27 06:33:20;;;;;;;989.00;92.20;;;;;;;;;;4756433;29;20106;-83
2024/01/27 06:35:47;;;;;;;1093.18;103.60;;;;;;;;;;4739421;29;20096;-81
2024/01/27 06:38:13;;;;;;;1096.63;103.93;;;;;;;;;;4750531;29;20046;-83
2024/01/27 06:40:40;;;;;;;1014.53;94.25;;;;;;;;;;4756545;29;20037;-83
2024/01/27 06:43:06;;;;;;;1062.07;100.18;;;;;;;;;;4751182;29;20152;-83
2024/01/27 06:45:33;;;;;;;1079.10;101.65;;;;;;;;;;4755374;29;21278;-82
2024/01/27 06:48:00;;;;;;;1001.13;93.35;;;;;;;;;;4754293;29;20117;-83
2024/01/27 06:50:27;;;;;;;1029.78;96.68;;;;;;;;;;4759189;29;21192;-83
2024/01/27 06:52:53;;;;;;;1083.72;100.88;;;;;;;;;;4752075;29;20045;-83
2024/01/27 06:55:20;;;;;;;983.75;91.07;;;;;;;;;;4760589;29;20148;-84
2024/01/27 06:57:47;;;;;;;1074.72;100.18;;;;;;;;;;4754592;29;20111;-83
2024/01/27 07:00:14;;;;;;;1144.93;111.78;;;;;;;;;;4753560;29;20073;-82
2024/01/27 07:02:42;;;;;;;1023.05;96.72;;;;;;;;;;4756226;29;20045;-83
2024/01/27 07:05:09;;;;;;;1051.55;98.32;;;;;;;;;;4735933;29;20847;-83
2024/01/27 07:07:36;;;;;;;1058.15;98.90;;;;;;;;;;4757423;29;21036;-83
2024/01/27 07:10:02;;;;;;;992.05;92.70;;;;;;;;;;4756358;29;21048;-82
2024/01/27 07:12:29;;;;;;;969.13;89.32;;;;;;;;;;4754293;29;20037;-84
2024/01/27 07:14:56;;;;;;;1068.20;100.63;;;;;;;;;;4753865;29;21438;-82
2024/01/27 07:17:23;;;;;;;1014.08;94.22;;;;;;;;;;4755467;29;20034;-82
2024/01/27 07:19:50;;;;;;;1026.55;96.07;;;;;;;;;;4754725;29;20049;-82
2024/01/27 07:22:17;;;;;;;1082.22;102.50;;;;;;;;;;4756139;29;20052;-82
2024/01/27 07:24:43;;;;;;;1076.40;100.88;;;;;;;;;;4757475;29;20041;-82
2024/01/27 07:27:12;;;;;;;1047.75;98.13;;;;;;;;;;4755771;29;20880;-83
2024/01/27 07:29:39;;;;;;;1090.53;102.78;;;;;;;;;;4757231;29;20045;-82
2024/01/27 07:32:07;;;;;;;1055.18;99.15;;;;;;;;;;4755031;29;20048;-83
2024/01/27 07:34:34;;;;;;;1075.25;100.72;;;;;;;;;;4754747;29;20037;-83
2024/01/27 07:37:00;;;;;;;1005.42;93.22;;;;;;;;;;4756459;29;20445;-83
2024/01/27 07:39:27;;;;;;;998.38;93.78;;;;;;;;;;4751892;29;20041;-82
2024/01/27 07:41:53;;;;;;;1033.80;97.13;;;;;;;;;;4757042;29;20323;-82
2024/01/27 07:44:20;;;;;;;1152.97;110.55;;;;;;;;;;4753083;29;20049;-82
2024/01/27 07:46:47;;;;;;;1033.47;96.47;;;;;;;;;;4737915;29;21154;-82
2024/01/27 07:49:15;;;;;;;1080.88;101.72;;;;;;;;;;4751499;29;20905;-82
2024/01/27 07:51:41;;;;;;;1067.88;100.10;;;;;;;;;;4753830;29;20037;-82
2024/01/27 07:54:08;;;;;;;1254.35;124.72;;;;;;;;;;4734177;29;20048;-81
2024/01/27 07:56:34;;;;;;;1012.97;94.40;;;;;;;;;;4736152;29;20056;-82
2024/01/27 07:59:01;;;;;;;1067.40;100.45;;;;;;;;;;4750884;29;21084;-81
2024/01/27 08:01:28;;;;;;;1122.78;107.30;;;;;;;;;;4750812;29;20970;-81
2024/01/27 08:03:54;;;;;;;936.33;85.50;;;;;;;;;;4757126;29;20053;-83
2024/01/27 08:06:27;;;;;;;992.80;91.32;;;;;;;;;;4760764;29;20037;-83
2024/01/27 08:08:54;;;;;;;998.97;93.38;;;;;;;;;;4744238;29;20049;-83
2024/01/27 08:11:20;;;;;;;980.83;91.18;;;;;;;;;;4736862;29;20041;-83
2024/01/27 08:13:47;;;;;;;1017.22;94.97;;;;;;;;;;4758839;29;20041;-84
2024/01/27 08:16:14;;;;;;;1040.63;97.50;;;;;;;;;;4760389;29;20080;-83
2024/01/27 08:18:43;;;;;;;960.90;88.90;;;;;;;;;;4744704;29;21023;-82
2024/01/27 08:21:11;;;;;;;1029.00;96.13;;;;;;;;;;4745073;29;20944;-84
2024/01/27 08:23:38;;;;;;;1077.80;101.55;;;;;;;;;;4759926;29;21042;-84
2024/01/27 08:26:05;;;;;;;1014.85;94.05;;;;;;;;;;4759023;29;20072;-83
2024/01/27 08:28:31;;;;;;;940.33;86.47;;;;;;;;;;4763865;29;20497;-82
2024/01/27 08:30:59;;;;;;;1018.45;94.90;;;;;;;;;;4762429;29;20041;-85
2024/01/27 08:33:26;;;;;;;1001.55;92.80;;;;;;;;;;4760638;29;20029;-84
2024/01/27 08:35:53;;;;;;;1016.67;94.93;;;;;;;;;;4756349;29;21118;-83
2024/01/27 08:38:20;;;;;;;1093.85;103.63;;;;;;;;;;4739622;29;21115;-83
2024/01/27 08:40:46;;;;;;;1006.75;94.03;;;;;;;;;;4758184;29;21161;-83
2024/01/27 08:43:13;;;;;;;1044.85;98.88;;;;;;;;;;4756739;29;20057;-83
2024/01/27 08:45:40;;;;;;;1078.57;101.55;;;;;;;;;;4756913;29;20196;-83
2024/01/27 08:48:07;;;;;;;1087.95;103.60;;;;;;;;;;4758385;29;20054;-83
2024/01/27 08:50:34;;;;;;;1005.55;93.30;;;;;;;;;;4759356;29;20064;-83
2024/01/27 08:53:01;;;;;;;1121.70;108.93;;;;;;;;;;4753797;29;20104;-83
2024/01/27 08:55:28;;;;;;;1031.18;96.30;;;;;;;;;;4751657;29;20428;-82
2024/01/27 08:57:57;;;;;;;1024.10;95.35;;;;;;;;;;4755480;29;20045;-83
2024/01/27 09:00:23;;;;;;;1063.30;100.13;;;;;;;;;;4754788;29;20033;-82
2024/01/27 09:02:51;;;;;;;1046.25;98.18;;;;;;;;;;4756349;29;21236;-83
2024/01/27 09:05:18;;;;;;;1051.25;99.70;;;;;;;;;;4756600;29;20060;-82
2024/01/27 09:07:45;;;;;;;1035.00;97.10;;;;;;;;;;4733948;29;20852;-81
2024/01/27 09:10:13;;;;;;;1096.53;103.72;;;;;;;;;;4753478;29;20152;-82
2024/01/27 09:12:42;;;;;;;1004.83;93.97;;;;;;;;;;4755424;29;20051;-82
2024/01/27 09:15:09;;;;;;;1126.55;108.78;;;;;;;;;;4753545;29;20064;-82
2024/01/27 09:17:36;;;;;;;1086.10;102.25;;;;;;;;;;4755972;29;21029;-81
2024/01/27 09:20:02;;;;;;;1010.75;94.68;;;;;;;;;;4752980;29;20041;-83
2024/01/27 09:22:29;;;;;;;1012.50;94.40;;;;;;;;;;4757085;29;20045;-80
2024/01/27 09:24:56;;;;;;;1095.70;105.00;;;;;;;;;;4752947;29;20144;-79
2024/01/27 09:27:23;;;;;;;1024.75;96.22;;;;;;;;;;4747549;29;20074;-79
2024/01/27 09:29:49;;;;;;;1040.38;98.13;;;;;;;;;;4755821;29;20033;-79
2024/01/27 09:32:16;;;;;;;1088.75;104.97;;;;;;;;;;4752316;29;20117;-79
2024/01/27 09:34:43;;;;;;;1069.60;101.50;;;;;;;;;;4753915;29;20139;-79
2024/01/27 09:37:09;;;;;;;1074.47;102.28;;;;;;;;;;4754983;29;20156;-79
2024/01/27 09:39:36;;;;;;;959.17;87.78;;;;;;;;;;4759034;29;20898;-83
2024/01/27 09:42:04;;;;;;;863.55;77.97;;;;;;;;;;4773068;29;21102;-81
2024/01/27 09:44:31;;;;;;;955.80;88.50;;;;;;;;;;4764094;29;20077;-81
2024/01/27 09:46:58;;;;;;;1031.65;96.22;;;;;;;;;;4752151;29;21330;-82
2024/01/27 09:49:26;;;;;;;999.35;93.30;;;;;;;;;;4759045;29;20152;-80
2024/01/27 09:51:54;;;;;;;975.42;91.10;;;;;;;;;;4759686;29;20045;-81
2024/01/27 09:54:21;;;;;;;1098.32;104.30;;;;;;;;;;4751623;29;20044;-82
2024/01/27 09:56:48;;;;;;;1146.50;110.50;;;;;;;;;;4755569;29;21032;-80
2024/01/27 09:59:17;;;;;;;1033.93;97.47;;;;;;;;;;4732661;29;20061;-81
2024/01/27 10:01:45;;;;;;;1074.72;102.18;;;;;;;;;;4753488;29;20075;-79
2024/01/27 10:04:13;;;;;;;1068.32;100.63;;;;;;;;;;4754574;29;20156;-81
2024/01/27 10:06:40;;;;;;;1055.65;99.55;;;;;;;;;;4750233;29;20724;-80
2024/01/27 10:09:07;;;;;;;1039.80;97.55;;;;;;;;;;4751570;29;20049;-81
2024/01/27 10:11:36;;;;;;;1071.70;101.07;;;;;;;;;;4756742;29;20934;-80
2024/01/27 10:14:03;;;;;;;1012.33;95.18;;;;;;;;;;4755790;29;20037;-79
2024/01/27 10:16:39;;;;;;;999.63;93.97;;;;;;;;;;4754025;29;21090;-80
2024/01/27 10:19:05;;;;;;;1045.13;100.35;;;;;;;;;;4741498;29;20818;-80
2024/01/27 10:21:32;;;;;;;1104.72;105.60;;;;;;;;;;4752909;29;20235;-81
2024/01/27 10:24:01;;;;;;;1034.70;97.50;;;;;;;;;;4754488;29;20049;-81
2024/01/27 10:26:30;;;;;;;1030.68;98.22;;;;;;;;;;4752763;29;21121;-81
2024/01/27 10:28:57;;;;;;;1069.90;101.72;;;;;;;;;;4753565;29;21140;-80
2024/01/27 10:31:27;;;;;;;1015.95;97.43;;;;;;;;;;4739486;29;20047;-81
2024/01/27 10:33:56;;;;;;;1056.90;102.07;;;;;;;;;;4756823;29;20914;-80
2024/01/27 10:36:41;;;;;;;1007.78;95.55;;;;;;;;;;4756001;29;20152;-81
2024/01/27 10:39:17;;;;;;;1040.40;98.88;;;;;;;;;;4754194;29;20052;-81
2024/01/27 10:41:54;;;;;;;1043.85;99.05;;;;;;;;;;4753777;29;20129;-81
2024/01/27 10:44:21;;;;;;;1073.65;103.45;;;;;;;;;;4754594;29;20044;-81
2024/01/27 10:46:49;;;;;;;1045.50;98.22;;;;;;;;;;4757503;29;20073;-81
2024/01/27 10:49:16;;;;;;;975.78;93.45;;;;;;;;;;4754909;29;20029;-81
2024/01/27 10:51:45;;;;;;;1079.20;106.15;;;;;;;;;;4738764;29;20041;-82
2024/01/27 10:54:18;;;;;;;1043.70;100.32;;;;;;;;;;4755858;29;20059;-81
2024/01/27 10:56:50;;;;;;;1028.53;96.90;;;;;;;;;;4758170;29;20049;-83
2024/01/27 10:59:18;;;;;;;1023.85;96.38;;;;;;;;;;4758050;29;20098;-82
2024/01/27 11:01:45;;;;;;;1073.70;101.75;;;;;;;;;;4754742;29;20051;-82
2024/01/27 11:04:13;;;;;;;1069.07;100.75;;;;;;;;;;4756834;29;20129;-80
2024/01/27 11:06:42;;;;;;;1014.13;95.65;;;;;;;;;;4760187;29;20144;-80
2024/01/27 11:09:11;;;;;;;1016.75;95.30;;;;;;;;;;4752801;29;20041;-81
2024/01/27 11:11:38;;;;;;;1016.42;94.28;;;;;;;;;;4760785;29;20048;-82
2024/01/27 11:14:06;;;;;;;1040.65;96.65;;;;;;;;;;4760395;29;20097;-80
2024/01/27 11:16:34;;;;;;;1005.42;94.30;;;;;;;;;;4758608;29;20044;-80
2024/01/27 11:19:00;;;;;;;1016.35;95.20;;;;;;;;;;4756059;29;20094;-80
2024/01/27 11:21:27;;;;;;;1025.63;96.38;;;;;;;;;;4730903;29;20160;-80
2024/01/27 11:23:54;;;;;;;1020.33;95.50;;;;;;;;;;4757694;29;20045;-80
2024/01/27 11:26:22;;;;;;;1025.53;96.80;;;;;;;;;;4756762;29;20213;-80
2024/01/27 11:28:49;;;;;;;1023.10;96.93;;;;;;;;;;4756390;29;20045;-80
2024/01/27 11:31:18;;;;;;;1054.30;99.82;;;;;;;;;;4758837;29;20045;-80
2024/01/27 11:33:48;;;;;;;1023.20;96.97;;;;;;;;;;4756387;29;20075;-79
2024/01/27 11:36:22;;;;;;;1099.30;105.65;;;;;;;;;;4757778;29;20054;-80
2024/01/27 11:38:51;;;;;;;1021.78;97.00;;;;;;;;;;4759994;29;20289;-80
2024/01/27 11:41:27;;;;;;;1045.60;100.13;;;;;;;;;;4758032;29;21106;-80
2024/01/27 11:43:55;;;;;;;1012.30;94.63;;;;;;;;;;4761125;29;22552;-80
2024/01/27 11:46:22;;;;;;;1030.65;97.65;;;;;;;;;;4755116;29;20064;-80
2024/01/27 11:48:48;;;;;;;1016.58;96.50;;;;;;;;;;4761899;29;20144;-80
2024/01/27 11:51:15;;;;;;;1001.03;95.38;;;;;;;;;;4759850;29;20041;-80
2024/01/27 11:53:44;;;;;;;1036.20;99.70;;;;;;;;;;4758453;29;20153;-80
2024/01/27 11:56:11;;;;;;;1060.20;101.53;;;;;;;;;;4757389;29;21068;-80
2024/01/27 11:58:38;;;;;;;1019.70;97.30;;;;;;;;;;4738648;29;21108;-80
2024/01/27 12:01:05;;;;;;;996.58;92.78;;;;;;;;;;4758358;29;20037;-80
2024/01/27 12:03:32;;;;;;;1070.55;102.03;;;;;;;;;;4761329;29;20049;-80
2024/01/27 12:05:59;;;;;;;1015.70;95.30;;;;;;;;;;4758594;29;20049;-80
2024/01/27 12:08:27;;;;;;;1027.28;96.43;;;;;;;;;;4761027;29;20041;-80
2024/01/27 12:10:54;;;;;;;1028.97;97.78;;;;;;;;;;4758622;29;20046;-80
2024/01/27 12:13:23;;;;;;;1018.72;97.65;;;;;;;;;;4759215;29;20045;-80
2024/01/27 12:15:49;;;;;;;1057.85;100.30;;;;;;;;;;4760053;29;20048;-80
2024/01/27 12:18:18;;;;;;;1056.35;99.03;;;;;;;;;;4744364;29;20221;-80
2024/01/27 12:20:54;;;;;;;1089.40;102.88;;;;;;;;;;4759725;29;20673;-80
2024/01/27 12:23:20;;;;;;;1035.13;98.00;;;;;;;;;;4758944;29;20041;-80
2024/01/27 12:25:52;;;;;;;1024.05;96.75;;;;;;;;;;4747794;29;20045;-80
2024/01/27 12:28:20;;;;;;;1036.53;98.05;;;;;;;;;;4758824;29;20057;-80
2024/01/27 12:30:47;;;;;;;1076.60;101.43;;;;;;;;;;4760827;29;21048;-80
2024/01/27 12:33:14;;;;;;;1056.00;100.25;;;;;;;;;;4756907;29;20052;-80
2024/01/27 12:35:41;;;;;;;1059.15;100.63;;;;;;;;;;4759313;29;21163;-78
2024/01/27 12:38:09;;;;;;;1033.50;97.50;;;;;;;;;;4759739;29;20053;-79
2024/01/27 12:40:37;;;;;;;1024.38;95.47;;;;;;;;;;4759953;29;21136;-81
2024/01/27 12:43:04;;;;;;;988.78;92.30;;;;;;;;;;4757746;29;20109;-80
2024/01/27 12:45:33;;;;;;;1025.95;97.13;;;;;;;;;;4758058;29;20041;-80
2024/01/27 12:48:00;;;;;;;1010.83;93.80;;;;;;;;;;4757790;29;20103;-80
2024/01/27 12:50:27;;;;;;;1019.35;94.53;;;;;;;;;;4760031;29;20060;-80
2024/01/27 12:52:54;;;;;;;1073.93;100.28;;;;;;;;;;4758301;29;20041;-80
2024/01/27 12:55:21;;;;;;;1002.55;92.90;;;;;;;;;;4758012;29;20041;-80
2024/01/27 12:57:48;;;;;;;1063.00;99.82;;;;;;;;;;4759072;29;20052;-80
2024/01/27 13:00:15;;;;;;;1060.95;100.32;;;;;;;;;;4758249;29;21032;-80
2024/01/27 13:02:43;;;;;;;1020.03;94.95;;;;;;;;;;4755371;29;20041;-80
2024/01/27 13:05:09;;;;;;;995.47;92.65;;;;;;;;;;4760290;29;20056;-80
2024/01/27 13:07:37;;;;;;;1040.63;96.95;;;;;;;;;;4758113;29;20087;-80
2024/01/27 13:10:04;;;;;;;994.50;92.60;;;;;;;;;;4759379;29;21221;-80
2024/01/27 13:12:30;;;;;;;1011.55;94.93;;;;;;;;;;4758424;29;20881;-80
2024/01/27 13:14:57;;;;;;;1022.70;96.32;;;;;;;;;;4757148;29;21076;-81
2024/01/27 13:17:24;;;;;;;1006.55;94.15;;;;;;;;;;4758892;29;21035;-80
2024/01/27 13:19:50;;;;;;;1042.80;98.65;;;;;;;;;;4758061;29;20983;-80
2024/01/27 13:22:17;;;;;;;1037.68;97.53;;;;;;;;;;4759947;29;20045;-80
2024/01/27 13:24:46;;;;;;;1089.90;103.57;;;;;;;;;;4759594;29;20044;-80
2024/01/27 13:27:13;;;;;;;1025.75;96.93;;;;;;;;;;4756860;29;20368;-80
2024/01/27 13:29:40;;;;;;;1042.63;97.95;;;;;;;;;;4760802;29;20837;-80
2024/01/27 13:32:07;;;;;;;1160.53;117.72;;;;;;;;;;4749629;29;20113;-81
2024/01/27 13:34:34;;;;;;;1084.22;104.20;;;;;;;;;;4752086;29;21221;-83
2024/01/27 13:37:04;;;;;;;1024.00;97.07;;;;;;;;;;4750002;29;21016;-80
2024/01/27 13:39:30;;;;;;;1109.65;106.18;;;;;;;;;;4750531;29;20128;-81
2024/01/27 13:41:57;;;;;;;1038.53;97.57;;;;;;;;;;4756148;29;20041;-81
2024/01/27 13:44:24;;;;;;;1208.63;117.90;;;;;;;;;;4756077;29;20144;-81
2024/01/27 13:46:53;;;;;;;1088.55;102.43;;;;;;;;;;4751055;29;21117;-81
2024/01/27 13:49:20;;;;;;;1014.47;94.22;;;;;;;;;;4753726;29;20098;-81
2024/01/27 13:51:47;;;;;;;1001.00;92.90;;;;;;;;;;4756991;29;20041;-83